Time;durP1;ratioP1;P1;durP2;ratioP2;P2;SDS_P1;SDS_P2;PMS_P1;PMS_P2;Temp;Humidity;BMP_temperature;BMP_pressure;BME280_temperature;BME280_humidity;BME280_pressure;Samples;Min_cycle;Max_cycle;Signal;HPM_P1;HPM_P2
2023/11/01 00:02:06;;;;;;;6.65;4.10;;;;;;;;;;5025215;28;20535;-70
2023/11/01 00:04:32;;;;;;;5.72;3.00;;;;;;;;;;5025286;28;20190;-70
2023/11/01 00:06:58;;;;;;;3.72;2.50;;;;;;;;;;5021891;28;20223;-70
2023/11/01 00:09:24;;;;;;;5.57;2.80;;;;;;;;;;5018945;28;20197;-70
2023/11/01 00:11:49;;;;;;;5.72;3.55;;;;;;;;;;5029258;28;20194;-70
2023/11/01 00:14:15;;;;;;;4.97;2.80;;;;;;;;;;5026492;28;20559;-70
2023/11/01 00:16:40;;;;;;;5.50;3.20;;;;;;;;;;5036962;28;20312;-69
2023/11/01 00:19:06;;;;;;;4.53;3.47;;;;;;;;;;5011657;28;20269;-69
2023/11/01 00:21:31;;;;;;;5.28;3.28;;;;;;;;;;5021973;28;20660;-69
2023/11/01 00:23:57;;;;;;;5.82;3.58;;;;;;;;;;5028586;28;20201;-69
2023/11/01 00:26:23;;;;;;;9.75;5.35;;;;;;;;;;5026463;28;20173;-69
2023/11/01 00:28:48;;;;;;;13.57;5.90;;;;;;;;;;5026975;28;20571;-69
2023/11/01 00:31:14;;;;;;;15.45;7.63;;;;;;;;;;5013222;28;20522;-69
2023/11/01 00:33:39;;;;;;;16.73;10.73;;;;;;;;;;5025264;28;20191;-69
2023/11/01 00:36:05;;;;;;;20.08;11.90;;;;;;;;;;5023184;28;20336;-69
2023/11/01 00:38:35;;;;;;;27.13;13.85;;;;;;;;;;5028791;28;20267;-70
2023/11/01 00:41:02;;;;;;;21.20;13.50;;;;;;;;;;5019614;28;20185;-69
2023/11/01 00:43:28;;;;;;;23.00;15.18;;;;;;;;;;5019713;28;20349;-69
2023/11/01 00:45:54;;;;;;;24.92;15.57;;;;;;;;;;5026681;28;20765;-69
2023/11/01 00:48:19;;;;;;;37.08;17.20;;;;;;;;;;5023758;28;21270;-69
2023/11/01 00:50:45;;;;;;;32.42;17.38;;;;;;;;;;5019251;28;20178;-69
2023/11/01 00:53:10;;;;;;;35.10;18.67;;;;;;;;;;5008641;28;20222;-68
2023/11/01 00:55:36;;;;;;;34.17;18.77;;;;;;;;;;5018172;28;20716;-68
2023/11/01 00:58:01;;;;;;;31.52;18.10;;;;;;;;;;5028464;28;20621;-70
2023/11/01 01:00:26;;;;;;;33.33;19.02;;;;;;;;;;5034697;28;20193;-68
2023/11/01 01:02:52;;;;;;;32.47;18.05;;;;;;;;;;5027995;28;20654;-68
2023/11/01 01:05:17;;;;;;;35.85;17.67;;;;;;;;;;5023434;28;20198;-69
2023/11/01 01:07:43;;;;;;;32.97;18.92;;;;;;;;;;5026266;28;20671;-68
2023/11/01 01:10:08;;;;;;;38.10;18.65;;;;;;;;;;5027832;28;20653;-68
2023/11/01 01:12:33;;;;;;;35.35;17.90;;;;;;;;;;5026104;28;20277;-68
2023/11/01 01:14:59;;;;;;;32.83;17.70;;;;;;;;;;5026892;28;20283;-69
2023/11/01 01:17:25;;;;;;;33.65;18.92;;;;;;;;;;5042012;28;20300;-70
2023/11/01 01:19:51;;;;;;;34.85;18.27;;;;;;;;;;5021719;28;20282;-68
2023/11/01 01:22:16;;;;;;;38.00;17.88;;;;;;;;;;5022607;28;20187;-69
2023/11/01 01:24:42;;;;;;;39.88;18.40;;;;;;;;;;5017241;28;20217;-68
2023/11/01 01:27:07;;;;;;;32.92;17.25;;;;;;;;;;5026551;28;20217;-68
2023/11/01 01:29:32;;;;;;;29.63;16.25;;;;;;;;;;5019947;28;20190;-68
2023/11/01 01:31:58;;;;;;;32.97;16.17;;;;;;;;;;5036055;28;20197;-69
2023/11/01 01:34:23;;;;;;;29.55;15.85;;;;;;;;;;5021357;28;20186;-69
2023/11/01 01:36:48;;;;;;;31.35;16.52;;;;;;;;;;5023832;28;20305;-69
2023/11/01 01:39:14;;;;;;;32.03;16.85;;;;;;;;;;5028549;28;20564;-69
2023/11/01 01:41:40;;;;;;;30.05;16.15;;;;;;;;;;5027466;28;20273;-69
2023/11/01 01:44:05;;;;;;;29.65;16.88;;;;;;;;;;5027982;28;20591;-69
2023/11/01 01:46:31;;;;;;;35.00;17.00;;;;;;;;;;5034960;28;20224;-69
2023/11/01 01:48:57;;;;;;;26.35;16.05;;;;;;;;;;5034062;28;20269;-68
2023/11/01 01:51:23;;;;;;;33.65;15.98;;;;;;;;;;5028109;28;20206;-68
2023/11/01 01:53:49;;;;;;;32.67;16.75;;;;;;;;;;5016287;28;20222;-69
2023/11/01 01:56:16;;;;;;;27.55;16.23;;;;;;;;;;5024124;28;20198;-68
2023/11/01 01:58:44;;;;;;;31.65;14.70;;;;;;;;;;5024117;28;20590;-68
2023/11/01 02:01:10;;;;;;;30.65;14.70;;;;;;;;;;5023464;28;20214;-68
2023/11/01 02:03:36;;;;;;;39.95;15.10;;;;;;;;;;5026848;28;20182;-69
2023/11/01 02:06:03;;;;;;;39.60;15.57;;;;;;;;;;5028567;28;20567;-69
2023/11/01 02:08:29;;;;;;;30.73;14.23;;;;;;;;;;5027298;28;20244;-69
2023/11/01 02:10:54;;;;;;;28.73;14.55;;;;;;;;;;5027718;28;20575;-69
2023/11/01 02:13:20;;;;;;;26.77;14.15;;;;;;;;;;5027944;28;20317;-69
2023/11/01 02:15:46;;;;;;;30.38;15.25;;;;;;;;;;5016131;28;20311;-69
2023/11/01 02:18:12;;;;;;;37.90;14.70;;;;;;;;;;5022780;28;20209;-69
2023/11/01 02:20:41;;;;;;;30.42;14.20;;;;;;;;;;5028697;28;20272;-69
2023/11/01 02:23:10;;;;;;;26.55;13.30;;;;;;;;;;5029018;28;20606;-69
2023/11/01 02:25:36;;;;;;;27.67;13.07;;;;;;;;;;5027888;28;20186;-68
2023/11/01 02:28:03;;;;;;;25.35;12.43;;;;;;;;;;5027419;28;20217;-68
2023/11/01 02:30:29;;;;;;;29.08;13.88;;;;;;;;;;5028026;28;20239;-68
2023/11/01 02:32:54;;;;;;;29.15;13.68;;;;;;;;;;5034814;28;20280;-68
2023/11/01 02:35:20;;;;;;;32.92;13.52;;;;;;;;;;5025164;28;20195;-68
2023/11/01 02:37:47;;;;;;;26.92;13.23;;;;;;;;;;5030694;28;20809;-69
2023/11/01 02:40:14;;;;;;;28.83;13.57;;;;;;;;;;5028369;28;20241;-69
2023/11/01 02:42:40;;;;;;;25.45;12.73;;;;;;;;;;5031553;28;20205;-68
2023/11/01 02:45:09;;;;;;;28.73;12.32;;;;;;;;;;5031504;28;20193;-68
2023/11/01 02:47:35;;;;;;;25.15;12.15;;;;;;;;;;5032102;28;20563;-69
2023/11/01 02:50:02;;;;;;;24.88;12.23;;;;;;;;;;5031223;28;20691;-68
2023/11/01 02:52:27;;;;;;;28.70;12.35;;;;;;;;;;5029863;28;20194;-69
2023/11/01 02:54:53;;;;;;;26.58;12.45;;;;;;;;;;5023504;28;20208;-68
2023/11/01 02:57:18;;;;;;;30.50;11.35;;;;;;;;;;5026442;28;20262;-68
2023/11/01 02:59:43;;;;;;;27.52;11.57;;;;;;;;;;5026954;28;20182;-69
2023/11/01 03:02:09;;;;;;;30.50;11.73;;;;;;;;;;5027131;28;20186;-69
2023/11/01 03:04:34;;;;;;;19.50;10.73;;;;;;;;;;5025794;28;20198;-69
2023/11/01 03:06:59;;;;;;;19.23;10.52;;;;;;;;;;5028704;28;20294;-69
2023/11/01 03:09:25;;;;;;;25.58;11.52;;;;;;;;;;5017683;28;20304;-69
2023/11/01 03:11:50;;;;;;;23.27;10.88;;;;;;;;;;5023469;28;20198;-69
2023/11/01 03:14:15;;;;;;;19.27;9.82;;;;;;;;;;5022231;28;20195;-69
2023/11/01 03:16:41;;;;;;;20.52;10.15;;;;;;;;;;5028428;28;20586;-69
2023/11/01 03:19:06;;;;;;;21.48;9.65;;;;;;;;;;5039920;28;20268;-69
2023/11/01 03:21:31;;;;;;;25.73;10.15;;;;;;;;;;5018082;28;20267;-69
2023/11/01 03:23:57;;;;;;;17.83;9.20;;;;;;;;;;5021155;28;20197;-69
2023/11/01 03:26:22;;;;;;;21.00;10.55;;;;;;;;;;5028463;28;20711;-69
2023/11/01 03:28:48;;;;;;;20.85;10.40;;;;;;;;;;5025291;28;20199;-69
2023/11/01 03:31:13;;;;;;;18.02;8.77;;;;;;;;;;5026983;28;20405;-68
2023/11/01 03:33:38;;;;;;;24.60;8.85;;;;;;;;;;5027044;28;20189;-69
2023/11/01 03:36:07;;;;;;;22.58;9.65;;;;;;;;;;5028929;28;20199;-69
2023/11/01 03:38:33;;;;;;;25.90;9.98;;;;;;;;;;5030174;28;20197;-69
2023/11/01 03:40:59;;;;;;;20.95;9.57;;;;;;;;;;5023165;28;20272;-69
2023/11/01 03:43:24;;;;;;;17.42;8.98;;;;;;;;;;5020229;28;20202;-69
2023/11/01 03:45:49;;;;;;;21.13;8.80;;;;;;;;;;5027132;28;20248;-69
2023/11/01 03:48:15;;;;;;;19.67;8.55;;;;;;;;;;5023890;28;20286;-69
2023/11/01 03:50:40;;;;;;;17.70;8.60;;;;;;;;;;5026059;28;20275;-69
2023/11/01 03:53:06;;;;;;;23.15;8.45;;;;;;;;;;5036236;28;20290;-69
2023/11/01 03:55:32;;;;;;;18.83;8.23;;;;;;;;;;5033987;28;20218;-69
2023/11/01 03:57:57;;;;;;;19.80;8.23;;;;;;;;;;5012918;28;20186;-68
2023/11/01 04:00:23;;;;;;;14.05;7.60;;;;;;;;;;5021907;28;20637;-68
2023/11/01 04:02:52;;;;;;;23.05;7.65;;;;;;;;;;5029393;28;20208;-68
2023/11/01 04:05:17;;;;;;;16.27;6.95;;;;;;;;;;5032475;28;20813;-69
2023/11/01 04:07:44;;;;;;;20.45;7.18;;;;;;;;;;5020905;28;20210;-68
2023/11/01 04:10:10;;;;;;;19.40;7.57;;;;;;;;;;5017336;28;20400;-68
2023/11/01 04:12:36;;;;;;;20.17;7.53;;;;;;;;;;5021850;28;20312;-68
2023/11/01 04:15:05;;;;;;;18.65;6.97;;;;;;;;;;5024536;28;20219;-68
2023/11/01 04:17:31;;;;;;;22.55;7.40;;;;;;;;;;5031997;28;20201;-68
2023/11/01 04:19:58;;;;;;;14.43;5.97;;;;;;;;;;5037853;28;20193;-69
2023/11/01 04:22:24;;;;;;;20.80;6.28;;;;;;;;;;5016940;28;20239;-69
2023/11/01 04:24:50;;;;;;;18.25;6.60;;;;;;;;;;5026905;28;20221;-68
2023/11/01 04:27:15;;;;;;;13.15;5.85;;;;;;;;;;5030057;28;20307;-68
2023/11/01 04:29:41;;;;;;;16.63;5.57;;;;;;;;;;5015358;28;20262;-69
2023/11/01 04:32:06;;;;;;;21.55;7.00;;;;;;;;;;5020995;28;20198;-69
2023/11/01 04:34:33;;;;;;;17.13;6.07;;;;;;;;;;5038114;28;20575;-69
2023/11/01 04:36:58;;;;;;;16.50;6.10;;;;;;;;;;5010514;28;20197;-69
2023/11/01 04:39:24;;;;;;;16.15;5.78;;;;;;;;;;5014958;28;20277;-69
2023/11/01 04:41:50;;;;;;;19.20;6.25;;;;;;;;;;5024139;28;20237;-69
2023/11/01 04:44:15;;;;;;;18.80;5.85;;;;;;;;;;5022168;28;20677;-69
2023/11/01 04:46:41;;;;;;;17.85;5.97;;;;;;;;;;5024618;28;20695;-68
2023/11/01 04:49:06;;;;;;;23.92;5.63;;;;;;;;;;5023056;28;20190;-69
2023/11/01 04:51:31;;;;;;;14.77;5.75;;;;;;;;;;5019744;28;20195;-69
2023/11/01 04:53:57;;;;;;;17.13;5.93;;;;;;;;;;5021405;28;20208;-69
2023/11/01 04:56:24;;;;;;;14.63;5.85;;;;;;;;;;5029668;28;20186;-69
2023/11/01 04:58:49;;;;;;;13.43;5.50;;;;;;;;;;5017382;28;20678;-70
2023/11/01 05:01:15;;;;;;;15.88;6.30;;;;;;;;;;5027005;28;20194;-69
2023/11/01 05:03:40;;;;;;;17.60;5.72;;;;;;;;;;5028495;28;20186;-69
2023/11/01 05:06:06;;;;;;;14.38;5.55;;;;;;;;;;5024832;28;20189;-68
2023/11/01 05:08:31;;;;;;;21.25;5.65;;;;;;;;;;5033686;28;20239;-70
2023/11/01 05:10:57;;;;;;;15.95;5.53;;;;;;;;;;5026405;28;20329;-69
2023/11/01 05:13:22;;;;;;;20.92;5.75;;;;;;;;;;5020963;28;20221;-69
2023/11/01 05:15:47;;;;;;;12.90;5.40;;;;;;;;;;5028303;28;20233;-69
2023/11/01 05:18:13;;;;;;;14.45;5.45;;;;;;;;;;5025321;28;20409;-69
2023/11/01 05:20:39;;;;;;;16.92;6.05;;;;;;;;;;5020782;28;20212;-69
2023/11/01 05:23:05;;;;;;;12.57;5.65;;;;;;;;;;5027661;28;20186;-68
2023/11/01 05:25:31;;;;;;;14.10;5.28;;;;;;;;;;5030830;28;20228;-69
2023/11/01 05:27:57;;;;;;;17.60;5.72;;;;;;;;;;5027631;28;20288;-69
2023/11/01 05:30:22;;;;;;;16.48;5.45;;;;;;;;;;5022556;28;20703;-69
2023/11/01 05:32:47;;;;;;;15.30;5.22;;;;;;;;;;5022534;28;20278;-68
2023/11/01 05:35:14;;;;;;;13.68;5.32;;;;;;;;;;5025051;28;20182;-70
2023/11/01 05:37:40;;;;;;;13.60;5.32;;;;;;;;;;5026098;28;20560;-70
2023/11/01 05:40:13;;;;;;;11.75;5.50;;;;;;;;;;5025284;28;20277;-70
2023/11/01 05:42:40;;;;;;;12.18;5.55;;;;;;;;;;5027457;28;20317;-70
2023/11/01 05:45:05;;;;;;;8.82;5.10;;;;;;;;;;5027027;28;20217;-71
2023/11/01 05:47:31;;;;;;;11.98;5.43;;;;;;;;;;5026451;28;20241;-72
2023/11/01 05:49:56;;;;;;;15.15;5.60;;;;;;;;;;5019869;28;20214;-72
2023/11/01 05:52:21;;;;;;;10.73;5.22;;;;;;;;;;5042237;28;20733;-71
2023/11/01 05:54:47;;;;;;;12.15;5.22;;;;;;;;;;5015404;28;20437;-72
2023/11/01 05:57:12;;;;;;;11.80;5.35;;;;;;;;;;5017786;28;20182;-72
2023/11/01 05:59:37;;;;;;;10.70;5.50;;;;;;;;;;5005532;28;20200;-71
2023/11/01 06:02:03;;;;;;;7.57;4.82;;;;;;;;;;5041032;28;20225;-72
2023/11/01 06:04:28;;;;;;;11.75;5.00;;;;;;;;;;5024884;28;20702;-72
2023/11/01 06:06:53;;;;;;;8.40;4.78;;;;;;;;;;5017129;28;20244;-71
2023/11/01 06:09:19;;;;;;;7.85;4.22;;;;;;;;;;5025110;28;20244;-71
2023/11/01 06:11:45;;;;;;;8.45;4.78;;;;;;;;;;5023586;28;20273;-71
2023/11/01 06:14:11;;;;;;;11.20;5.20;;;;;;;;;;5021301;28;20207;-71
2023/11/01 06:16:36;;;;;;;9.40;5.43;;;;;;;;;;5020408;28;20320;-71
2023/11/01 06:19:02;;;;;;;10.23;5.90;;;;;;;;;;5020862;28;20280;-72
2023/11/01 06:21:27;;;;;;;10.75;6.85;;;;;;;;;;5026834;28;20213;-72
2023/11/01 06:23:52;;;;;;;10.65;6.45;;;;;;;;;;5018400;28;20355;-73
2023/11/01 06:26:19;;;;;;;8.55;6.90;;;;;;;;;;5019519;28;20226;-73
2023/11/01 06:28:44;;;;;;;14.25;8.70;;;;;;;;;;5018529;28;20241;-71
2023/11/01 06:31:12;;;;;;;12.88;8.68;;;;;;;;;;5014727;28;20234;-73
2023/11/01 06:33:38;;;;;;;14.48;8.80;;;;;;;;;;5015704;28;20277;-73
2023/11/01 06:36:04;;;;;;;12.20;9.43;;;;;;;;;;5021698;28;20286;-72
2023/11/01 06:38:29;;;;;;;11.45;9.13;;;;;;;;;;5024657;28;20179;-73
2023/11/01 06:40:54;;;;;;;13.02;9.00;;;;;;;;;;5015684;28;20289;-72
2023/11/01 06:43:20;;;;;;;15.27;8.68;;;;;;;;;;5024964;28;20201;-72
2023/11/01 06:45:45;;;;;;;14.40;9.02;;;;;;;;;;5023573;28;20198;-72
2023/11/01 06:48:11;;;;;;;11.77;8.68;;;;;;;;;;5034678;28;20518;-73
2023/11/01 06:50:40;;;;;;;14.55;9.88;;;;;;;;;;5021217;28;20187;-73
2023/11/01 06:53:05;;;;;;;15.05;9.27;;;;;;;;;;5024766;28;20185;-73
2023/11/01 06:55:31;;;;;;;13.60;9.60;;;;;;;;;;5015994;28;20558;-73
2023/11/01 06:57:56;;;;;;;12.55;9.82;;;;;;;;;;5027177;28;20210;-72
2023/11/01 07:00:23;;;;;;;15.27;10.18;;;;;;;;;;5029026;28;20190;-73
2023/11/01 07:02:50;;;;;;;14.93;9.38;;;;;;;;;;5039471;28;20270;-73
2023/11/01 07:05:15;;;;;;;10.77;8.85;;;;;;;;;;5030266;28;20458;-73
2023/11/01 07:07:41;;;;;;;13.57;9.93;;;;;;;;;;5028900;28;20210;-72
2023/11/01 07:10:07;;;;;;;11.20;8.85;;;;;;;;;;5022266;28;20282;-73
2023/11/01 07:12:33;;;;;;;12.05;8.68;;;;;;;;;;5017109;28;20623;-72
2023/11/01 07:14:58;;;;;;;10.52;8.48;;;;;;;;;;5029375;28;20202;-71
2023/11/01 07:17:27;;;;;;;13.70;8.80;;;;;;;;;;5030128;28;20384;-72
2023/11/01 07:19:54;;;;;;;14.55;9.60;;;;;;;;;;5028321;28;20194;-71
2023/11/01 07:22:20;;;;;;;12.23;9.07;;;;;;;;;;5028091;28;20622;-72
2023/11/01 07:24:46;;;;;;;10.50;8.98;;;;;;;;;;5028755;28;20275;-72
2023/11/01 07:27:11;;;;;;;12.60;9.65;;;;;;;;;;5021860;28;20265;-73
2023/11/01 07:29:37;;;;;;;13.63;9.73;;;;;;;;;;5029857;28;20225;-71
2023/11/01 07:32:02;;;;;;;15.18;8.82;;;;;;;;;;5032406;28;20193;-72
2023/11/01 07:34:27;;;;;;;11.65;9.13;;;;;;;;;;5021586;28;20365;-72
2023/11/01 07:36:53;;;;;;;14.73;9.40;;;;;;;;;;5028979;28;20182;-72
2023/11/01 07:39:18;;;;;;;14.75;9.52;;;;;;;;;;5027206;28;20182;-71
2023/11/01 07:41:44;;;;;;;13.15;9.32;;;;;;;;;;5019352;28;20282;-71
2023/11/01 07:44:09;;;;;;;17.33;9.38;;;;;;;;;;5023770;28;20515;-71
2023/11/01 07:46:34;;;;;;;16.40;9.43;;;;;;;;;;5038641;28;20218;-71
2023/11/01 07:49:00;;;;;;;21.95;10.23;;;;;;;;;;5044362;28;20194;-70
2023/11/01 07:51:25;;;;;;;17.65;10.50;;;;;;;;;;5023170;28;20301;-70
2023/11/01 07:53:51;;;;;;;16.38;9.57;;;;;;;;;;5026743;28;20251;-71
2023/11/01 07:56:16;;;;;;;16.55;9.80;;;;;;;;;;5027596;28;20201;-70
2023/11/01 07:58:43;;;;;;;16.60;9.10;;;;;;;;;;5024743;28;20278;-70
2023/11/01 08:01:08;;;;;;;25.42;9.90;;;;;;;;;;5025718;28;20201;-70
2023/11/01 08:03:35;;;;;;;16.75;9.32;;;;;;;;;;5023198;28;20194;-69
2023/11/01 08:06:01;;;;;;;21.25;9.75;;;;;;;;;;5028618;28;20189;-69
2023/11/01 08:08:27;;;;;;;22.83;9.70;;;;;;;;;;5023793;28;20214;-69
2023/11/01 08:10:52;;;;;;;20.83;9.77;;;;;;;;;;5013622;28;20554;-69
2023/11/01 08:13:18;;;;;;;18.63;9.73;;;;;;;;;;5028283;28;20281;-70
2023/11/01 08:15:43;;;;;;;22.25;8.55;;;;;;;;;;5025368;28;20260;-69
2023/11/01 08:18:10;;;;;;;18.67;8.27;;;;;;;;;;5018055;28;20210;-69
2023/11/01 08:20:36;;;;;;;19.50;8.57;;;;;;;;;;5022310;28;20194;-69
2023/11/01 08:23:02;;;;;;;22.20;8.60;;;;;;;;;;5021883;28;20213;-72
2023/11/01 08:25:27;;;;;;;20.90;8.50;;;;;;;;;;5020405;28;20277;-71
2023/11/01 08:27:53;;;;;;;23.27;8.27;;;;;;;;;;5026488;28;20232;-70
2023/11/01 08:30:18;;;;;;;23.73;8.25;;;;;;;;;;5019323;28;20202;-70
2023/11/01 08:32:44;;;;;;;20.60;7.22;;;;;;;;;;5025887;28;20182;-70
2023/11/01 08:35:10;;;;;;;18.27;8.40;;;;;;;;;;5015761;28;20224;-70
2023/11/01 08:37:36;;;;;;;16.05;7.00;;;;;;;;;;5018935;28;20265;-71
2023/11/01 08:40:02;;;;;;;23.05;6.93;;;;;;;;;;5023635;28;20218;-69
2023/11/01 08:42:29;;;;;;;19.38;6.82;;;;;;;;;;5021371;28;20187;-70
2023/11/01 08:44:54;;;;;;;24.40;7.50;;;;;;;;;;5027537;28;20209;-69
2023/11/01 08:47:33;;;;;;;19.25;7.90;;;;;;;;;;5026817;28;20202;-69
2023/11/01 08:49:59;;;;;;;15.07;5.63;;;;;;;;;;5011479;28;20199;-68
2023/11/01 08:52:25;;;;;;;18.02;6.00;;;;;;;;;;5019151;28;20605;-68
2023/11/01 08:54:50;;;;;;;19.40;5.90;;;;;;;;;;5024929;28;20197;-69
2023/11/01 08:57:15;;;;;;;19.40;5.80;;;;;;;;;;5026956;28;20194;-70
2023/11/01 08:59:42;;;;;;;18.25;4.80;;;;;;;;;;5022829;28;20208;-70
2023/11/01 09:02:07;;;;;;;20.50;4.93;;;;;;;;;;5020588;28;20635;-69
2023/11/01 09:04:32;;;;;;;17.95;5.65;;;;;;;;;;5016370;28;20210;-69
2023/11/01 09:06:58;;;;;;;14.35;4.22;;;;;;;;;;5024709;28;20214;-69
2023/11/01 09:09:25;;;;;;;17.38;4.20;;;;;;;;;;5016945;28;20197;-70
2023/11/01 09:11:51;;;;;;;15.18;4.43;;;;;;;;;;5024693;28;20657;-70
2023/11/01 09:14:16;;;;;;;19.33;4.47;;;;;;;;;;5016684;28;20373;-69
2023/11/01 09:16:42;;;;;;;13.90;3.92;;;;;;;;;;5014323;28;20396;-69
2023/11/01 09:19:07;;;;;;;18.35;3.95;;;;;;;;;;5022085;28;20205;-75
2023/11/01 09:21:35;;;;;;;16.67;4.18;;;;;;;;;;5016512;28;20550;-69
2023/11/01 09:24:01;;;;;;;17.20;4.25;;;;;;;;;;5027550;28;20668;-69
2023/11/01 09:26:26;;;;;;;16.50;3.90;;;;;;;;;;5033106;28;20197;-69
2023/11/01 09:28:51;;;;;;;14.73;3.78;;;;;;;;;;5024372;28;20249;-70
2023/11/01 09:31:17;;;;;;;11.75;3.50;;;;;;;;;;5015366;28;20860;-69
2023/11/01 09:33:48;;;;;;;16.30;3.67;;;;;;;;;;5015010;28;20213;-70
2023/11/01 09:36:14;;;;;;;19.02;3.90;;;;;;;;;;5009344;28;20557;-69
2023/11/01 09:38:39;;;;;;;12.57;3.85;;;;;;;;;;5027218;28;20251;-68
2023/11/01 09:41:08;;;;;;;13.85;3.30;;;;;;;;;;5026702;28;20206;-69
2023/11/01 09:43:38;;;;;;;17.77;3.33;;;;;;;;;;5034389;28;20217;-71
2023/11/01 09:46:04;;;;;;;16.35;2.95;;;;;;;;;;5030255;28;20182;-68
2023/11/01 09:48:30;;;;;;;14.77;3.05;;;;;;;;;;5032668;28;20343;-74
2023/11/01 09:50:57;;;;;;;13.60;3.25;;;;;;;;;;5030672;28;20182;-68
2023/11/01 09:53:23;;;;;;;11.88;3.20;;;;;;;;;;5016656;28;20201;-68
2023/11/01 09:55:49;;;;;;;15.63;3.25;;;;;;;;;;5028608;28;20273;-68
2023/11/01 09:58:18;;;;;;;13.63;2.50;;;;;;;;;;5033825;28;20227;-69
2023/11/01 10:00:44;;;;;;;13.65;2.42;;;;;;;;;;5039160;28;20186;-69
2023/11/01 10:03:10;;;;;;;14.13;2.72;;;;;;;;;;5017718;28;20242;-71
2023/11/01 10:05:36;;;;;;;12.88;2.63;;;;;;;;;;5025791;28;20189;-68
2023/11/01 10:08:01;;;;;;;13.10;3.28;;;;;;;;;;5032193;28;20206;-69
2023/11/01 10:10:27;;;;;;;9.63;2.25;;;;;;;;;;5025592;28;20183;-68
2023/11/01 10:12:53;;;;;;;13.55;2.28;;;;;;;;;;5028664;28;20206;-69
2023/11/01 10:15:19;;;;;;;15.20;2.70;;;;;;;;;;5039483;28;20206;-68
2023/11/01 10:17:45;;;;;;;17.02;2.72;;;;;;;;;;5030993;28;20231;-68
2023/11/01 10:20:27;;;;;;;10.93;2.28;;;;;;;;;;5019918;28;20195;-69
2023/11/01 10:22:54;;;;;;;15.13;2.50;;;;;;;;;;5041258;28;20202;-69
2023/11/01 10:25:19;;;;;;;10.18;2.13;;;;;;;;;;5031314;28;20594;-70
2023/11/01 10:27:46;;;;;;;14.90;2.30;;;;;;;;;;5032424;28;20224;-69
2023/11/01 10:30:13;;;;;;;9.48;2.42;;;;;;;;;;5030762;28;20248;-69
2023/11/01 10:32:38;;;;;;;8.98;2.53;;;;;;;;;;5028114;28;20197;-69
2023/11/01 10:35:11;;;;;;;12.18;1.90;;;;;;;;;;5029342;28;20630;-69
2023/11/01 10:37:36;;;;;;;17.65;2.53;;;;;;;;;;5043545;28;20228;-69
2023/11/01 10:40:11;;;;;;;12.18;2.60;;;;;;;;;;5030373;28;20227;-69
2023/11/01 10:42:39;;;;;;;14.82;3.35;;;;;;;;;;5031755;28;20197;-68
2023/11/01 10:45:05;;;;;;;11.23;2.00;;;;;;;;;;5031595;28;20190;-70
2023/11/01 10:47:31;;;;;;;12.07;2.00;;;;;;;;;;5028514;28;20261;-71
2023/11/01 10:49:57;;;;;;;10.70;2.13;;;;;;;;;;5012143;28;20191;-69
2023/11/01 10:52:25;;;;;;;11.90;2.40;;;;;;;;;;5028321;28;20218;-69
2023/11/01 10:54:51;;;;;;;10.82;2.25;;;;;;;;;;5032078;28;20662;-68
2023/11/01 10:57:18;;;;;;;10.27;2.38;;;;;;;;;;5031046;28;20214;-70
2023/11/01 10:59:51;;;;;;;12.52;2.30;;;;;;;;;;5030796;28;20201;-69
2023/11/01 11:02:27;;;;;;;9.02;1.80;;;;;;;;;;5031773;28;20229;-69
2023/11/01 11:04:58;;;;;;;12.15;2.00;;;;;;;;;;5018741;28;20197;-70
2023/11/01 11:07:49;;;;;;;14.27;2.05;;;;;;;;;;5031908;28;20624;-69
2023/11/01 11:10:24;;;;;;;12.38;1.90;;;;;;;;;;5023211;28;20181;-74
2023/11/01 11:13:17;;;;;;;6.80;1.90;;;;;;;;;;5017682;28;20634;-68
2023/11/01 11:15:48;;;;;;;9.20;2.10;;;;;;;;;;5021275;28;20222;-69
2023/11/01 11:18:16;;;;;;;8.45;2.30;;;;;;;;;;5031191;28;20182;-70
2023/11/01 11:20:41;;;;;;;13.63;2.28;;;;;;;;;;5029440;28;20182;-68
2023/11/01 11:23:08;;;;;;;11.57;2.08;;;;;;;;;;5023060;28;20519;-68
2023/11/01 11:25:45;;;;;;;7.07;1.60;;;;;;;;;;5022121;28;20285;-69
2023/11/01 11:28:29;;;;;;;7.82;1.73;;;;;;;;;;5025084;28;20202;-73
2023/11/01 11:33:49;;;;;;;13.23;2.38;;;;;;;;;;5028060;28;20220;-70
2023/11/01 11:36:16;;;;;;;10.65;1.90;;;;;;;;;;5025963;28;20197;-69
2023/11/01 11:39:05;;;;;;;6.57;1.77;;;;;;;;;;5023263;28;20512;-71
2023/11/01 11:41:37;;;;;;;11.07;2.10;;;;;;;;;;5027657;28;20496;-69
2023/11/01 11:44:13;;;;;;;8.60;1.90;;;;;;;;;;5031278;28;20190;-68
2023/11/01 11:46:45;;;;;;;12.43;2.08;;;;;;;;;;5029508;28;20273;-69
2023/11/01 11:49:26;;;;;;;11.98;1.70;;;;;;;;;;5029638;28;20581;-71
2023/11/01 11:51:53;;;;;;;7.88;2.17;;;;;;;;;;5029750;28;20205;-73
2023/11/01 11:54:20;;;;;;;12.35;1.98;;;;;;;;;;5012307;28;20269;-69
2023/11/01 11:56:47;;;;;;;6.15;1.50;;;;;;;;;;5030399;28;20200;-74
2023/11/01 11:59:19;;;;;;;6.72;1.23;;;;;;;;;;5040610;28;20267;-71
2023/11/01 12:01:45;;;;;;;8.18;1.40;;;;;;;;;;5030427;28;20717;-69
2023/11/01 12:04:11;;;;;;;4.25;1.40;;;;;;;;;;5029678;28;20273;-71
2023/11/01 12:06:53;;;;;;;13.02;2.15;;;;;;;;;;5029877;28;20205;-69
2023/11/01 12:09:20;;;;;;;9.15;1.45;;;;;;;;;;5028757;28;20479;-70
2023/11/01 12:11:57;;;;;;;11.63;1.83;;;;;;;;;;5046201;28;20208;-67
2023/11/01 12:14:24;;;;;;;11.15;1.75;;;;;;;;;;5021150;28;20217;-68
2023/11/01 12:16:51;;;;;;;8.77;1.52;;;;;;;;;;5027251;28;20225;-72
2023/11/01 12:19:19;;;;;;;10.68;1.33;;;;;;;;;;5027545;28;20652;-73
2023/11/01 12:21:52;;;;;;;5.63;1.33;;;;;;;;;;5028034;28;20629;-68
2023/11/01 12:24:19;;;;;;;6.05;1.60;;;;;;;;;;5011917;28;20561;-69
2023/11/01 12:27:21;;;;;;;7.22;1.75;;;;;;;;;;5033862;28;20201;-69
2023/11/01 12:29:51;;;;;;;12.38;1.25;;;;;;;;;;5026368;28;20205;-68
2023/11/01 12:32:38;;;;;;;6.97;1.52;;;;;;;;;;5015908;28;20262;-68
2023/11/01 12:35:05;;;;;;;11.00;1.60;;;;;;;;;;5024240;28;20616;-68
2023/11/01 12:37:32;;;;;;;7.20;1.38;;;;;;;;;;5029098;28;20260;-69
2023/11/01 12:40:18;;;;;;;4.57;1.23;;;;;;;;;;5025044;28;20476;-68
2023/11/01 12:42:51;;;;;;;8.13;1.65;;;;;;;;;;5023371;28;20253;-71
2023/11/01 12:45:18;;;;;;;7.03;1.30;;;;;;;;;;5023845;28;20201;-70
2023/11/01 12:47:52;;;;;;;5.32;1.25;;;;;;;;;;5029018;28;20264;-68
2023/11/01 12:50:19;;;;;;;7.68;1.35;;;;;;;;;;5029349;28;20264;-74
2023/11/01 12:52:45;;;;;;;5.68;1.40;;;;;;;;;;5023789;28;20186;-69
2023/11/01 12:55:11;;;;;;;7.15;1.23;;;;;;;;;;5020215;28;20182;-72
2023/11/01 12:57:42;;;;;;;4.00;0.95;;;;;;;;;;5011126;28;20217;-72
2023/11/01 13:00:08;;;;;;;7.28;1.20;;;;;;;;;;5026250;28;20673;-71
2023/11/01 13:02:34;;;;;;;6.35;1.00;;;;;;;;;;5029100;28;20197;-71
2023/11/01 13:04:59;;;;;;;6.88;1.30;;;;;;;;;;5028885;28;20284;-74
2023/11/01 13:07:24;;;;;;;4.55;1.10;;;;;;;;;;5038137;28;20221;-70
2023/11/01 13:09:50;;;;;;;6.32;1.25;;;;;;;;;;5027998;28;20297;-71
2023/11/01 13:12:16;;;;;;;4.30;1.17;;;;;;;;;;5022383;28;20191;-74
2023/11/01 13:14:41;;;;;;;5.25;1.00;;;;;;;;;;5030253;28;20233;-71
2023/11/01 13:17:08;;;;;;;7.47;1.27;;;;;;;;;;5028449;28;20613;-69
2023/11/01 13:19:33;;;;;;;6.25;1.13;;;;;;;;;;5029019;28;20188;-71
2023/11/01 13:21:59;;;;;;;7.85;1.23;;;;;;;;;;5028971;28;20194;-71
2023/11/01 13:24:24;;;;;;;6.00;1.08;;;;;;;;;;5028526;28;20182;-68
2023/11/01 13:26:50;;;;;;;5.07;0.85;;;;;;;;;;5026656;28;20625;-74
2023/11/01 13:29:15;;;;;;;3.83;1.05;;;;;;;;;;5033907;28;20189;-71
2023/11/01 13:31:40;;;;;;;6.35;1.15;;;;;;;;;;5027657;28;20590;-69
2023/11/01 13:34:06;;;;;;;8.38;1.92;;;;;;;;;;5012235;28;20198;-68
2023/11/01 13:36:31;;;;;;;4.47;1.20;;;;;;;;;;5022719;28;20186;-69
2023/11/01 13:38:57;;;;;;;6.25;1.25;;;;;;;;;;5019198;28;20179;-69
2023/11/01 13:41:22;;;;;;;7.35;1.35;;;;;;;;;;5025658;28;20186;-71
2023/11/01 13:43:48;;;;;;;3.70;1.00;;;;;;;;;;5022968;28;20213;-69
2023/11/01 13:46:13;;;;;;;3.55;1.00;;;;;;;;;;5028783;28;20186;-68
2023/11/01 13:48:42;;;;;;;6.80;1.10;;;;;;;;;;5018523;28;20594;-68
2023/11/01 13:51:09;;;;;;;6.53;1.13;;;;;;;;;;5021792;28;20182;-68
2023/11/01 13:53:34;;;;;;;4.57;1.08;;;;;;;;;;5022674;28;20299;-69
2023/11/01 13:55:59;;;;;;;7.95;1.42;;;;;;;;;;5025169;28;20285;-71
2023/11/01 13:58:26;;;;;;;5.75;1.60;;;;;;;;;;5027970;28;20193;-70
2023/11/01 14:00:51;;;;;;;10.05;1.35;;;;;;;;;;5018747;28;20222;-74
2023/11/01 14:03:17;;;;;;;4.78;1.50;;;;;;;;;;5028193;28;20316;-69
2023/11/01 14:05:42;;;;;;;5.70;1.15;;;;;;;;;;5029940;28;20182;-68
2023/11/01 14:08:08;;;;;;;6.35;0.95;;;;;;;;;;5027754;28;20218;-73
2023/11/01 14:10:34;;;;;;;15.38;1.60;;;;;;;;;;5023546;28;20498;-68
2023/11/01 14:13:05;;;;;;;5.07;1.20;;;;;;;;;;5029163;28;20206;-70
2023/11/01 14:15:32;;;;;;;5.65;1.00;;;;;;;;;;5017553;28;20248;-69
2023/11/01 14:18:01;;;;;;;3.35;1.08;;;;;;;;;;5017890;28;20304;-69
2023/11/01 14:20:27;;;;;;;8.07;1.35;;;;;;;;;;5017299;28;20341;-70
2023/11/01 14:22:53;;;;;;;7.45;1.25;;;;;;;;;;5025322;28;20187;-70
2023/11/01 14:25:19;;;;;;;7.13;1.52;;;;;;;;;;5028758;28;20342;-69
2023/11/01 14:27:47;;;;;;;7.63;1.45;;;;;;;;;;5030105;28;20215;-70
2023/11/01 14:30:12;;;;;;;9.63;1.40;;;;;;;;;;5019475;28;20193;-69
2023/11/01 14:32:38;;;;;;;5.82;1.10;;;;;;;;;;5023083;28;20664;-71